createdAt,value
2023-12-16T00:01:04.110Z,75.05
2023-12-16T00:03:33.667Z,76.27
2023-12-16T00:06:02.982Z,75.77
2023-12-16T00:08:31.850Z,74.97
2023-12-16T00:10:59.810Z,74.51
2023-12-16T00:13:28.848Z,74.58
2023-12-16T00:15:56.934Z,75.15
2023-12-16T00:18:25.786Z,76.25
2023-12-16T00:20:56.858Z,76.45
2023-12-16T00:23:24.940Z,75.61
2023-12-16T00:25:53.007Z,74.91
2023-12-16T00:28:21.203Z,74.91
2023-12-16T00:30:49.667Z,74.60
2023-12-16T00:33:18.660Z,74.32
2023-12-16T00:35:46.822Z,74.24
2023-12-16T00:38:14.889Z,74.17
2023-12-16T00:40:43.842Z,74.10
2023-12-16T00:43:11.976Z,74.30
2023-12-16T00:45:40.095Z,74.49
2023-12-16T00:48:09.467Z,74.85
2023-12-16T00:50:39.713Z,73.86
2023-12-16T00:53:07.795Z,73.81
2023-12-16T00:55:35.856Z,75.15
2023-12-16T00:58:03.978Z,75.06
2023-12-16T01:00:32.038Z,74.39
2023-12-16T01:03:00.514Z,73.75
2023-12-16T01:05:28.741Z,74.97
2023-12-16T01:07:57.079Z,75.01
2023-12-16T01:10:25.061Z,74.68
2023-12-16T01:12:53.854Z,74.57
2023-12-16T01:15:21.822Z,74.56
2023-12-16T01:17:49.860Z,74.37
2023-12-16T01:20:18.290Z,74.67
2023-12-16T01:22:46.261Z,74.80
2023-12-16T01:25:14.185Z,75.34
2023-12-16T01:27:43.857Z,75.15
2023-12-16T01:30:12.038Z,74.93
2023-12-16T01:32:41.570Z,76.00
2023-12-16T01:35:10.130Z,75.09
2023-12-16T01:37:38.373Z,74.73
2023-12-16T01:40:07.411Z,74.71
2023-12-16T01:42:35.926Z,76.57
2023-12-16T01:45:05.478Z,75.52
2023-12-16T01:47:34.009Z,75.65
2023-12-16T01:50:02.533Z,75.68
2023-12-16T01:52:31.716Z,76.43
2023-12-16T01:55:02.279Z,75.80
2023-12-16T01:57:30.833Z,75.92
2023-12-16T01:59:59.597Z,75.70
2023-12-16T02:02:28.426Z,76.08
2023-12-16T02:04:56.494Z,75.97
2023-12-16T02:07:25.369Z,75.11
2023-12-16T02:09:53.445Z,77.75
2023-12-16T02:12:21.470Z,77.36
2023-12-16T02:14:49.505Z,76.70
2023-12-16T02:17:17.440Z,77.20
2023-12-16T02:19:47.544Z,76.42
2023-12-16T02:22:15.721Z,77.64
2023-12-16T02:24:43.764Z,76.25
2023-12-16T02:27:11.727Z,76.67
2023-12-16T02:29:39.952Z,75.96
2023-12-16T02:32:08.650Z,75.78
2023-12-16T02:34:37.206Z,76.01
2023-12-16T02:37:07.621Z,75.27
2023-12-16T02:39:36.192Z,75.43
2023-12-16T02:42:04.390Z,75.16
2023-12-16T02:44:32.768Z,75.49
2023-12-16T02:47:01.172Z,75.04
2023-12-16T02:49:30.226Z,75.05
2023-12-16T02:51:59.891Z,74.46
2023-12-16T02:54:29.371Z,74.29
2023-12-16T02:56:57.643Z,74.78
2023-12-16T02:59:26.069Z,75.10
2023-12-16T03:01:54.352Z,73.99
2023-12-16T03:04:22.617Z,74.72
2023-12-16T03:06:51.844Z,75.54
2023-12-16T03:09:19.930Z,75.13
2023-12-16T03:11:48.924Z,74.85
2023-12-16T03:14:17.973Z,74.55
2023-12-16T03:16:47.223Z,74.46
2023-12-16T03:19:15.357Z,74.75
2023-12-16T03:21:43.622Z,74.59
2023-12-16T03:24:14.539Z,73.38
2023-12-16T03:26:45.182Z,73.12
2023-12-16T03:29:13.728Z,73.50
2023-12-16T03:31:41.802Z,73.60
2023-12-16T03:34:10.119Z,74.07
2023-12-16T03:36:38.133Z,74.25
2023-12-16T03:39:07.144Z,74.14
2023-12-16T03:41:36.094Z,74.06
2023-12-16T03:44:04.046Z,73.71
2023-12-16T03:46:32.020Z,73.86
2023-12-16T03:49:00.535Z,72.58
2023-12-16T03:51:29.084Z,72.82
2023-12-16T03:53:57.454Z,72.57
2023-12-16T03:56:25.485Z,73.04
2023-12-16T03:58:53.534Z,72.99
2023-12-16T04:01:21.638Z,73.18
2023-12-16T04:03:49.984Z,73.15
2023-12-16T04:06:19.726Z,73.73
2023-12-16T04:08:47.752Z,74.20
2023-12-16T04:11:15.937Z,74.89
2023-12-16T04:13:43.795Z,75.12
2023-12-16T04:16:11.755Z,75.81
2023-12-16T04:18:40.164Z,74.78
2023-12-16T04:21:08.177Z,74.58
2023-12-16T04:23:36.067Z,75.15
2023-12-16T04:26:07.708Z,75.13
2023-12-16T04:28:37.134Z,75.25
2023-12-16T04:31:06.309Z,75.02
2023-12-16T04:33:35.028Z,74.80
2023-12-16T04:36:03.148Z,74.66
2023-12-16T04:38:31.230Z,74.96
2023-12-16T04:40:59.197Z,75.85
2023-12-16T04:43:27.836Z,74.57
2023-12-16T04:45:56.288Z,74.70
2023-12-16T04:48:24.269Z,74.26
2023-12-16T04:50:52.832Z,74.58
2023-12-16T04:53:20.871Z,73.87
2023-12-16T04:55:51.928Z,74.54
2023-12-16T04:58:21.551Z,74.69
2023-12-16T05:00:50.145Z,75.11
2023-12-16T05:03:18.513Z,74.77
2023-12-16T05:05:46.711Z,75.28
2023-12-16T05:08:15.984Z,75.87
2023-12-16T05:10:47.226Z,75.51
2023-12-16T05:13:16.344Z,75.60
2023-12-16T05:15:44.900Z,76.06
2023-12-16T05:18:13.211Z,74.81
2023-12-16T05:20:41.397Z,74.57
2023-12-16T05:23:09.287Z,75.63
2023-12-16T05:25:37.504Z,75.79
2023-12-16T05:28:05.498Z,74.68
2023-12-16T05:30:33.610Z,74.72
2023-12-16T05:33:01.787Z,73.95
2023-12-16T05:35:29.813Z,75.01
2023-12-16T05:37:58.404Z,75.31
2023-12-16T05:40:26.614Z,74.53
2023-12-16T05:42:54.773Z,75.26
2023-12-16T05:45:23.199Z,75.75
2023-12-16T05:47:51.688Z,75.54
2023-12-16T05:50:22.053Z,75.17
2023-12-16T05:52:50.202Z,75.53
2023-12-16T05:55:18.438Z,75.75
2023-12-16T05:57:46.452Z,76.88
2023-12-16T06:00:15.742Z,77.32
2023-12-16T06:02:43.901Z,77.30
2023-12-16T06:05:12.094Z,76.23
2023-12-16T06:07:40.579Z,77.28
2023-12-16T06:10:09.596Z,77.44
2023-12-16T06:12:37.744Z,77.22
2023-12-16T06:15:06.422Z,77.57
2023-12-16T06:17:34.644Z,77.81
2023-12-16T06:20:03.244Z,77.33
2023-12-16T06:22:32.865Z,76.73
2023-12-16T06:25:01.982Z,76.24
2023-12-16T06:27:31.746Z,77.05
2023-12-16T06:29:59.672Z,76.88
2023-12-16T06:32:27.877Z,76.22
2023-12-16T06:34:55.934Z,75.80
2023-12-16T06:37:23.915Z,75.72
2023-12-16T06:39:52.000Z,75.55
2023-12-16T06:42:20.516Z,76.87
2023-12-16T06:44:48.607Z,76.45
2023-12-16T06:47:16.693Z,76.25
2023-12-16T06:49:44.946Z,76.88
2023-12-16T06:52:13.547Z,77.42
2023-12-16T06:54:41.451Z,76.00
2023-12-16T06:57:09.444Z,76.75
2023-12-16T06:59:37.530Z,76.47
2023-12-16T07:02:06.037Z,76.49
2023-12-16T07:04:35.364Z,76.85
2023-12-16T07:07:03.784Z,76.36
2023-12-16T07:09:31.900Z,76.84
2023-12-16T07:11:59.869Z,76.81
2023-12-16T07:14:30.271Z,76.51
2023-12-16T07:16:58.474Z,77.00
2023-12-16T07:19:26.628Z,77.70
2023-12-16T07:21:55.264Z,76.48
2023-12-16T07:24:23.417Z,77.12
2023-12-16T07:26:51.343Z,76.77
2023-12-16T07:29:19.802Z,76.55
2023-12-16T07:31:49.406Z,77.60
2023-12-16T07:34:18.269Z,76.62
2023-12-16T07:36:46.608Z,76.43
2023-12-16T07:39:14.669Z,76.57
2023-12-16T07:41:43.074Z,77.10
2023-12-16T07:44:12.757Z,76.61
2023-12-16T07:46:42.822Z,76.43
2023-12-16T07:49:11.500Z,75.72
2023-12-16T07:51:39.629Z,75.52
2023-12-16T07:54:08.623Z,75.56
2023-12-16T07:56:36.714Z,75.60
2023-12-16T07:59:04.651Z,75.91
2023-12-16T08:01:32.690Z,75.35
2023-12-16T08:04:00.983Z,75.71
2023-12-16T08:06:31.678Z,75.94
2023-12-16T08:09:00.923Z,75.82
2023-12-16T08:11:29.116Z,75.51
2023-12-16T08:13:57.152Z,76.40
2023-12-16T08:16:25.603Z,75.40
2023-12-16T08:18:56.336Z,74.13
2023-12-16T08:21:24.893Z,74.68
2023-12-16T08:23:53.141Z,75.43
2023-12-16T08:26:21.117Z,74.32
2023-12-16T08:28:49.601Z,74.40
2023-12-16T08:31:17.915Z,74.19
2023-12-16T08:33:46.253Z,73.96
2023-12-16T08:36:14.230Z,74.23
2023-12-16T08:38:45.550Z,74.90
2023-12-16T08:41:13.856Z,73.59
2023-12-16T08:43:44.471Z,73.47
2023-12-16T08:46:13.492Z,72.65
2023-12-16T08:48:42.337Z,72.77
2023-12-16T08:51:10.311Z,72.02
2023-12-16T08:53:38.511Z,72.04
2023-12-16T08:56:08.236Z,71.78
2023-12-16T08:58:36.587Z,72.03
2023-12-16T09:01:04.905Z,71.40
2023-12-16T09:03:33.718Z,70.47
2023-12-16T09:06:01.735Z,70.78
2023-12-16T09:08:30.132Z,71.59
2023-12-16T09:10:59.136Z,71.46
2023-12-16T09:13:27.230Z,70.57
2023-12-16T09:15:55.190Z,69.58
2023-12-16T09:18:23.466Z,70.76
2023-12-16T09:20:51.441Z,71.00
2023-12-16T09:23:19.592Z,70.85
2023-12-16T09:25:47.682Z,70.16
2023-12-16T09:28:16.729Z,70.80
2023-12-16T09:30:45.788Z,70.42
2023-12-16T09:33:14.328Z,70.08
2023-12-16T09:35:44.751Z,70.14
2023-12-16T09:38:13.281Z,70.95
2023-12-16T09:40:42.389Z,71.44
2023-12-16T09:43:21.166Z,70.37
2023-12-16T09:45:49.609Z,70.04
2023-12-16T09:48:18.904Z,71.47
2023-12-16T09:50:48.097Z,71.29
2023-12-16T09:53:16.558Z,72.41
2023-12-16T09:55:45.726Z,71.21
2023-12-16T09:58:17.688Z,72.69
2023-12-16T10:00:50.648Z,72.67
2023-12-16T10:03:18.978Z,71.77
2023-12-16T10:05:47.950Z,71.27
2023-12-16T10:08:17.079Z,70.57
2023-12-16T10:10:51.315Z,71.46
2023-12-16T10:13:23.285Z,70.25
2023-12-16T10:15:51.772Z,69.43
2023-12-16T10:18:20.359Z,70.50
2023-12-16T10:20:50.124Z,70.30
2023-12-16T10:23:20.132Z,71.10
2023-12-16T10:25:50.149Z,70.53
2023-12-16T10:28:20.715Z,70.73
2023-12-16T10:30:50.306Z,70.57
2023-12-16T10:33:24.781Z,69.63
2023-12-16T10:35:53.978Z,69.62
2023-12-16T10:38:27.368Z,70.18
2023-12-16T10:40:56.206Z,70.15
2023-12-16T10:43:25.406Z,69.81
2023-12-16T10:45:55.782Z,69.57
2023-12-16T10:48:28.028Z,71.15
2023-12-16T10:50:57.134Z,71.68
2023-12-16T10:53:28.182Z,71.10
2023-12-16T10:56:01.197Z,71.09
2023-12-16T10:58:32.381Z,70.79
2023-12-16T11:01:07.421Z,71.03
2023-12-16T11:03:53.405Z,70.48
2023-12-16T11:07:07.421Z,71.08
2023-12-16T11:09:35.474Z,71.61
2023-12-16T11:12:05.099Z,71.70
2023-12-16T11:14:35.585Z,71.40
2023-12-16T11:17:11.947Z,70.43
2023-12-16T11:19:47.231Z,71.26
2023-12-16T11:22:21.984Z,71.64
2023-12-16T11:24:53.354Z,72.06
2023-12-16T11:27:22.335Z,71.30
2023-12-16T11:29:51.807Z,71.75
2023-12-16T11:32:20.095Z,70.53
2023-12-16T11:34:52.956Z,70.52
2023-12-16T11:37:39.189Z,70.88
2023-12-16T11:40:11.324Z,71.06
2023-12-16T11:42:45.067Z,70.21
2023-12-16T11:45:40.149Z,69.49
2023-12-16T11:48:10.118Z,70.03
2023-12-16T11:50:41.012Z,69.31
2023-12-16T11:53:13.409Z,69.10
2023-12-16T11:55:42.909Z,68.76
2023-12-16T11:58:11.411Z,68.33
2023-12-16T12:00:39.819Z,67.77
2023-12-16T12:03:08.471Z,67.83
2023-12-16T12:05:38.516Z,67.91
2023-12-16T12:08:07.809Z,68.19
2023-12-16T12:10:36.380Z,67.31
2023-12-16T12:13:04.876Z,67.74
2023-12-16T12:15:36.955Z,67.12
2023-12-16T12:18:05.446Z,67.49
2023-12-16T12:20:34.273Z,66.47
2023-12-16T12:23:04.417Z,67.20
2023-12-16T12:25:33.535Z,66.37
2023-12-16T12:28:01.522Z,66.89
2023-12-16T12:30:29.736Z,66.97
2023-12-16T12:32:57.808Z,67.32
2023-12-16T12:35:26.221Z,67.14
2023-12-16T12:37:55.141Z,67.47
2023-12-16T12:40:24.814Z,68.22
2023-12-16T12:42:55.482Z,68.81
2023-12-16T12:45:27.582Z,68.61
2023-12-16T12:47:57.495Z,67.88
2023-12-16T12:50:30.185Z,66.93
2023-12-16T12:53:19.803Z,67.92
2023-12-16T12:55:47.112Z,68.09
2023-12-16T12:58:22.870Z,67.92
2023-12-16T13:00:56.070Z,68.96
2023-12-16T13:03:24.309Z,68.79
2023-12-16T13:05:52.770Z,68.23
2023-12-16T13:08:21.186Z,67.20
2023-12-16T13:10:52.799Z,67.46
2023-12-16T13:13:22.576Z,67.74
2023-12-16T13:15:55.009Z,68.78
2023-12-16T13:18:27.515Z,67.85
2023-12-16T13:20:58.345Z,67.52
2023-12-16T13:23:28.255Z,67.10
2023-12-16T13:25:56.793Z,67.48
2023-12-16T13:28:25.392Z,67.89
2023-12-16T13:30:54.470Z,67.38
2023-12-16T13:33:23.394Z,67.36
2023-12-16T13:35:52.216Z,68.61
2023-12-16T13:38:22.197Z,68.51
2023-12-16T13:40:53.707Z,67.42
2023-12-16T13:43:22.422Z,67.53
2023-12-16T13:45:52.117Z,67.45
2023-12-16T13:48:21.308Z,67.57
2023-12-16T13:50:51.128Z,67.61
2023-12-16T13:53:19.307Z,67.22
2023-12-16T13:55:47.591Z,66.91
2023-12-16T13:58:15.859Z,66.88
2023-12-16T14:00:47.393Z,66.93
2023-12-16T14:03:15.811Z,66.33
2023-12-16T14:05:44.567Z,66.68
2023-12-16T14:08:12.814Z,67.45
2023-12-16T14:10:41.063Z,67.79
2023-12-16T14:13:09.346Z,68.39
2023-12-16T14:15:37.509Z,67.13
2023-12-16T14:18:05.581Z,67.61
2023-12-16T14:20:33.969Z,66.81
2023-12-16T14:23:01.937Z,67.14
2023-12-16T14:25:30.183Z,67.66
2023-12-16T14:27:59.199Z,67.88
2023-12-16T14:30:27.479Z,68.16
2023-12-16T14:32:56.536Z,67.55
2023-12-16T14:35:26.089Z,66.95
2023-12-16T14:37:54.746Z,67.46
2023-12-16T14:40:23.245Z,67.84
2023-12-16T14:42:51.243Z,67.47
2023-12-16T14:45:19.909Z,67.06
2023-12-16T14:47:48.062Z,67.58
2023-12-16T14:50:18.664Z,67.59
2023-12-16T14:52:46.676Z,68.38
2023-12-16T14:55:14.940Z,67.73
2023-12-16T14:57:44.645Z,68.59
2023-12-16T15:00:13.298Z,68.10
2023-12-16T15:02:42.072Z,68.25
2023-12-16T15:05:10.431Z,68.62
2023-12-16T15:07:38.557Z,69.39
2023-12-16T15:10:08.703Z,69.52
2023-12-16T15:12:37.119Z,69.33
2023-12-16T15:15:06.500Z,69.18
2023-12-16T15:17:35.308Z,69.48
2023-12-16T15:20:04.584Z,69.60
2023-12-16T15:22:32.505Z,69.77
2023-12-16T15:25:00.815Z,69.44
2023-12-16T15:27:28.810Z,70.83
2023-12-16T15:29:57.283Z,70.28
2023-12-16T15:32:25.391Z,70.78
2023-12-16T15:34:53.751Z,71.05
2023-12-16T15:37:21.878Z,70.77
2023-12-16T15:39:50.055Z,70.98
2023-12-16T15:42:18.092Z,70.85
2023-12-16T15:44:47.157Z,70.52
2023-12-16T15:47:15.541Z,70.56
2023-12-16T15:49:44.002Z,71.15
2023-12-16T15:52:12.068Z,70.83
2023-12-16T15:54:42.407Z,71.20
2023-12-16T15:57:12.336Z,70.91
2023-12-16T15:59:41.259Z,71.67
2023-12-16T16:02:09.417Z,71.69
2023-12-16T16:04:38.080Z,71.28
2023-12-16T16:07:06.097Z,72.03
2023-12-16T16:09:34.361Z,71.27
2023-12-16T16:12:02.534Z,71.34
2023-12-16T16:14:31.730Z,70.48
2023-12-16T16:17:00.205Z,71.04
2023-12-16T16:19:28.612Z,71.39
2023-12-16T16:21:56.736Z,70.79
2023-12-16T16:24:24.921Z,70.79
2023-12-16T16:26:53.533Z,70.51
2023-12-16T16:29:21.664Z,70.11
2023-12-16T16:31:49.637Z,69.33
2023-12-16T16:34:18.135Z,69.56
2023-12-16T16:36:46.161Z,70.38
2023-12-16T16:39:14.675Z,69.67
2023-12-16T16:41:42.642Z,69.95
2023-12-16T16:44:13.241Z,70.50
2023-12-16T16:46:43.312Z,69.79
2023-12-16T16:49:13.342Z,70.21
2023-12-16T16:51:41.464Z,70.42
2023-12-16T16:54:12.190Z,70.39
2023-12-16T16:56:43.387Z,69.37
2023-12-16T16:59:12.745Z,69.08
2023-12-16T17:01:40.877Z,68.47
2023-12-16T17:04:09.097Z,69.00
2023-12-16T17:06:37.222Z,69.49
2023-12-16T17:09:10.997Z,69.13
2023-12-16T17:11:39.708Z,69.87
2023-12-16T17:14:11.922Z,70.23
2023-12-16T17:16:41.958Z,70.63
2023-12-16T17:19:11.360Z,70.08
2023-12-16T17:21:41.008Z,70.41
2023-12-16T17:24:10.307Z,70.84
2023-12-16T17:26:38.722Z,71.33
2023-12-16T17:29:08.126Z,70.92
2023-12-16T17:31:38.095Z,70.85
2023-12-16T17:34:07.177Z,71.92
2023-12-16T17:36:35.392Z,70.88
2023-12-16T17:39:03.918Z,71.02
2023-12-16T17:41:33.285Z,70.53
2023-12-16T17:44:03.140Z,70.65
2023-12-16T17:46:31.252Z,70.89
2023-12-16T17:48:59.663Z,71.36
2023-12-16T17:51:27.735Z,71.48
2023-12-16T17:53:58.170Z,71.66
2023-12-16T17:56:26.441Z,71.78
2023-12-16T17:58:54.707Z,71.59
2023-12-16T18:01:22.765Z,71.88
2023-12-16T18:03:52.553Z,71.57
2023-12-16T18:06:21.721Z,71.83
2023-12-16T18:08:49.947Z,71.71
2023-12-16T18:11:18.653Z,71.82
2023-12-16T18:13:47.332Z,71.61
2023-12-16T18:16:15.505Z,71.54
2023-12-16T18:18:44.551Z,72.15
2023-12-16T18:21:13.479Z,72.36
2023-12-16T18:23:42.186Z,72.27
2023-12-16T18:26:12.047Z,72.31
2023-12-16T18:28:40.411Z,72.50
2023-12-16T18:31:09.134Z,72.96
2023-12-16T18:33:37.767Z,73.02
2023-12-16T18:36:06.402Z,72.40
2023-12-16T18:38:34.415Z,72.71
2023-12-16T18:41:02.820Z,72.63
2023-12-16T18:43:31.927Z,72.71
2023-12-16T18:46:00.254Z,73.00
2023-12-16T18:48:30.036Z,72.24
2023-12-16T18:50:58.559Z,72.91
2023-12-16T18:53:26.789Z,72.74
2023-12-16T18:55:54.996Z,72.95
2023-12-16T18:58:23.342Z,72.98
2023-12-16T19:00:51.330Z,73.07
2023-12-16T19:03:20.538Z,73.64
2023-12-16T19:05:49.717Z,73.47
2023-12-16T19:08:18.890Z,73.73
2023-12-16T19:10:46.991Z,73.74
2023-12-16T19:13:15.200Z,73.93
2023-12-16T19:15:43.224Z,74.83
2023-12-16T19:18:13.738Z,74.68
2023-12-16T19:20:41.891Z,74.66
2023-12-16T19:23:10.574Z,74.09
2023-12-16T19:25:39.961Z,74.43
2023-12-16T19:28:08.093Z,74.17
2023-12-16T19:30:36.517Z,74.51
2023-12-16T19:33:04.866Z,74.25
2023-12-16T19:35:34.470Z,73.43
2023-12-16T19:38:02.544Z,73.66
2023-12-16T19:40:30.525Z,73.84
2023-12-16T19:42:58.614Z,73.54
2023-12-16T19:45:26.678Z,73.56
2023-12-16T19:47:55.119Z,73.33
2023-12-16T19:50:23.100Z,73.98
2023-12-16T19:52:51.905Z,74.24
2023-12-16T19:55:20.542Z,73.69
2023-12-16T19:57:48.872Z,73.48
2023-12-16T20:00:17.261Z,73.36
2023-12-16T20:02:46.119Z,73.81
2023-12-16T20:05:14.392Z,73.95
2023-12-16T20:07:43.737Z,73.23
2023-12-16T20:10:12.511Z,73.87
2023-12-16T20:12:40.729Z,74.22
2023-12-16T20:15:09.379Z,74.19
2023-12-16T20:17:39.265Z,74.79
2023-12-16T20:20:09.176Z,74.87
2023-12-16T20:22:37.407Z,74.78
2023-12-16T20:25:06.011Z,74.46
2023-12-16T20:27:34.316Z,74.41
2023-12-16T20:30:02.411Z,74.39
2023-12-16T20:32:31.503Z,74.69
2023-12-16T20:35:00.752Z,74.30
2023-12-16T20:37:29.849Z,74.25
2023-12-16T20:40:16.272Z,74.33
2023-12-16T20:42:44.559Z,74.46
2023-12-16T20:45:12.704Z,74.02
2023-12-16T20:47:41.185Z,73.95
2023-12-16T20:50:09.724Z,74.72
2023-12-16T20:52:39.290Z,73.83
2023-12-16T20:55:07.638Z,75.19
2023-12-16T20:57:38.239Z,75.14
2023-12-16T21:00:07.195Z,74.49
2023-12-16T21:02:35.439Z,75.70
2023-12-16T21:05:03.830Z,75.55
2023-12-16T21:07:31.963Z,75.46
2023-12-16T21:10:00.025Z,74.96
2023-12-16T21:12:28.334Z,75.05
2023-12-16T21:14:57.105Z,75.69
2023-12-16T21:17:26.513Z,75.33
2023-12-16T21:19:54.692Z,75.06
2023-12-16T21:22:22.975Z,74.83
2023-12-16T21:24:51.640Z,74.77
2023-12-16T21:27:20.007Z,75.31
2023-12-16T21:29:48.037Z,75.13
2023-12-16T21:32:18.637Z,75.25
2023-12-16T21:34:47.012Z,75.10
2023-12-16T21:37:15.383Z,75.20
2023-12-16T21:39:43.352Z,74.50
2023-12-16T21:42:11.815Z,75.05
2023-12-16T21:44:40.360Z,74.99
2023-12-16T21:47:08.691Z,74.66
2023-12-16T21:49:37.055Z,75.29
2023-12-16T21:52:06.329Z,75.21
2023-12-16T21:54:34.436Z,74.84
2023-12-16T21:57:02.779Z,75.05
2023-12-16T21:59:31.070Z,74.83
2023-12-16T22:01:59.471Z,75.10
2023-12-16T22:04:27.427Z,74.54
2023-12-16T22:06:56.422Z,74.88
2023-12-16T22:09:24.662Z,74.71
2023-12-16T22:11:53.859Z,75.01
2023-12-16T22:14:22.019Z,74.61
2023-12-16T22:16:50.469Z,74.76
2023-12-16T22:19:18.595Z,75.02
2023-12-16T22:21:46.789Z,74.64
2023-12-16T22:24:14.799Z,75.08
2023-12-16T22:26:43.364Z,75.67
2023-12-16T22:29:12.029Z,75.42
2023-12-16T22:31:41.965Z,75.24
2023-12-16T22:34:10.493Z,74.46
2023-12-16T22:36:38.554Z,74.63
2023-12-16T22:39:09.699Z,74.61
2023-12-16T22:41:38.151Z,74.28
2023-12-16T22:44:06.170Z,74.39
2023-12-16T22:46:34.846Z,74.71
2023-12-16T22:49:03.167Z,74.93
2023-12-16T22:51:31.792Z,75.09
2023-12-16T22:54:01.023Z,74.00
2023-12-16T22:56:29.139Z,74.59
2023-12-16T22:58:57.050Z,74.47
2023-12-16T23:01:25.186Z,74.99
2023-12-16T23:03:53.507Z,74.62
2023-12-16T23:06:22.439Z,75.37
2023-12-16T23:08:50.704Z,75.50
2023-12-16T23:11:18.902Z,76.06
2023-12-16T23:13:49.387Z,75.27
2023-12-16T23:16:17.713Z,75.26
2023-12-16T23:18:45.799Z,75.14
2023-12-16T23:21:14.077Z,75.05
2023-12-16T23:23:43.020Z,74.53
2023-12-16T23:26:11.655Z,74.88
2023-12-16T23:28:42.057Z,74.54
2023-12-16T23:31:15.353Z,74.40
2023-12-16T23:33:45.389Z,74.68
2023-12-16T23:36:15.266Z,74.37
2023-12-16T23:38:43.568Z,74.42
2023-12-16T23:41:16.244Z,74.43
2023-12-16T23:43:44.905Z,74.25
2023-12-16T23:46:18.867Z,74.68
2023-12-16T23:48:49.791Z,75.79
2023-12-16T23:51:18.015Z,75.14
2023-12-16T23:53:49.572Z,74.69
2023-12-16T23:56:19.380Z,74.59
2023-12-16T23:58:49.156Z,74.95
